GMFF

Saïss Airport

Fes, Morocco
METAR GMFF 181330Z 34004KT 290V020 9999 SCT020 15/07 Q1020 NOSIG
Observed Flight Rules
Jan-18 @ 13:30 UTC (21 minutes ago) Visual Flight Rules
Wind Visibility Clouds
340° at 4 knots 10,000+ meters
  • Scattered at 2,000' AGL
Temperatures Readings
Current 15°C / 59°F
Dewpoint 7°C / 45°F
Humidity 59%
Altimeter 30.12" Hg
Pressure 1019.92 hPa
Elevation 579
METAR GMFF 181330Z 34004KT 290V020 9999 SCT020 15/07 Q1020 NOSIG
Observed Flight Rules
Jan-18 @ 13:30 UTC
(21 minutes ago)
VFR
Wind Visibility
340° at 4 knots 10,000+ meters
Clouds
  • Scattered at 2,000' AGL
Temperature Dewpoint
15°C / 59°F 7°C / 45°F
Humidity Altimeter Pressure
59% 30.12" Hg 1019.92 hPa